Time;durP1;ratioP1;P1;durP2;ratioP2;P2;SDS_P1;SDS_P2;PMS_P1;PMS_P2;Temp;Humidity;BMP_temperature;BMP_pressure;BME280_temperature;BME280_humidity;BME280_pressure;Samples;Min_cycle;Max_cycle;Signal;HPM_P1;HPM_P2
2021/11/20 00:01:16;;;;;;;44.45;25.63;;;;;;;;;;5054198;28;20025;-50
2021/11/20 00:03:46;;;;;;;35.83;20.98;;;;;;;;;;5054089;28;20024;-50
2021/11/20 00:06:17;;;;;;;28.20;16.83;;;;;;;;;;5053876;28;20028;-50
2021/11/20 00:08:43;;;;;;;31.27;18.15;;;;;;;;;;5054182;28;20383;-51
2021/11/20 00:11:11;;;;;;;34.97;20.05;;;;;;;;;;5053868;28;20022;-51
2021/11/20 00:13:37;;;;;;;37.60;20.42;;;;;;;;;;5053961;28;20107;-51
2021/11/20 00:16:07;;;;;;;33.53;16.77;;;;;;;;;;5053891;28;20025;-51
2021/11/20 00:18:33;;;;;;;32.55;18.35;;;;;;;;;;5053815;28;20098;-51
2021/11/20 00:21:02;;;;;;;27.63;17.25;;;;;;;;;;5053853;28;20032;-51
2021/11/20 00:23:37;;;;;;;32.60;18.80;;;;;;;;;;5053892;28;20033;-51
2021/11/20 00:26:04;;;;;;;24.85;16.17;;;;;;;;;;5052433;28;20473;-51
2021/11/20 00:28:53;;;;;;;44.90;23.98;;;;;;;;;;5053755;28;20029;-50
2021/11/20 00:31:19;;;;;;;26.55;16.60;;;;;;;;;;5053572;28;20036;-50
2021/11/20 00:33:45;;;;;;;33.53;18.60;;;;;;;;;;5052666;28;20021;-50
2021/11/20 00:36:14;;;;;;;25.35;15.48;;;;;;;;;;5053530;28;20061;-50
2021/11/20 00:38:42;;;;;;;24.65;15.10;;;;;;;;;;5053449;28;20473;-49
2021/11/20 00:41:31;;;;;;;24.95;14.23;;;;;;;;;;5053359;28;20021;-50
2021/11/20 00:44:00;;;;;;;25.70;15.68;;;;;;;;;;5053372;28;20477;-50
2021/11/20 00:46:27;;;;;;;26.88;16.02;;;;;;;;;;5053509;28;20319;-50
2021/11/20 00:48:54;;;;;;;34.83;20.75;;;;;;;;;;5053330;28;20032;-50
2021/11/20 00:51:23;;;;;;;32.15;18.13;;;;;;;;;;5053282;28;20166;-49
2021/11/20 00:53:49;;;;;;;46.70;26.38;;;;;;;;;;5053159;28;20465;-50
2021/11/20 00:56:16;;;;;;;42.25;24.75;;;;;;;;;;5053186;28;20063;-50
2021/11/20 00:58:42;;;;;;;26.17;16.52;;;;;;;;;;5053154;28;20021;-50
2021/11/20 01:01:11;;;;;;;40.95;20.45;;;;;;;;;;5053149;28;20029;-50
2021/11/20 01:03:37;;;;;;;61.75;33.67;;;;;;;;;;5053049;28;20029;-50
2021/11/20 01:06:08;;;;;;;44.60;23.42;;;;;;;;;;5053048;28;20033;-49
2021/11/20 01:08:38;;;;;;;43.13;24.67;;;;;;;;;;5053188;28;20021;-50
2021/11/20 01:11:07;;;;;;;31.25;17.38;;;;;;;;;;5053083;28;20021;-50
2021/11/20 01:13:34;;;;;;;25.67;16.13;;;;;;;;;;5052987;28;20029;-50
2021/11/20 01:16:02;;;;;;;41.45;23.67;;;;;;;;;;5053277;28;20429;-50
2021/11/20 01:18:31;;;;;;;30.15;18.02;;;;;;;;;;5053075;28;20469;-50
2021/11/20 01:20:57;;;;;;;23.48;15.18;;;;;;;;;;5052818;28;20029;-50
2021/11/20 01:23:25;;;;;;;28.13;15.95;;;;;;;;;;5052898;28;20105;-49
2021/11/20 01:25:54;;;;;;;27.73;16.00;;;;;;;;;;5052953;28;20033;-50
2021/11/20 01:28:21;;;;;;;25.48;15.90;;;;;;;;;;5052756;28;20027;-50
2021/11/20 01:30:47;;;;;;;23.83;14.13;;;;;;;;;;5052886;28;20029;-50
2021/11/20 01:33:13;;;;;;;27.77;14.88;;;;;;;;;;5052797;28;20021;-50
2021/11/20 01:35:40;;;;;;;24.88;14.80;;;;;;;;;;5053056;28;20028;-50
2021/11/20 01:38:06;;;;;;;26.58;13.55;;;;;;;;;;5052894;28;20104;-50
2021/11/20 01:40:37;;;;;;;23.42;14.10;;;;;;;;;;5051532;28;20385;-49
2021/11/20 01:43:06;;;;;;;24.27;14.55;;;;;;;;;;5052761;28;20029;-50
2021/11/20 01:45:34;;;;;;;30.13;17.98;;;;;;;;;;5056265;28;20404;-49
2021/11/20 01:48:19;;;;;;;29.00;14.38;;;;;;;;;;5056924;28;20025;-49
2021/11/20 01:50:46;;;;;;;24.45;13.98;;;;;;;;;;5056765;28;20033;-49
2021/11/20 01:53:32;;;;;;;24.67;14.30;;;;;;;;;;5056417;28;20045;-49
2021/11/20 01:55:58;;;;;;;27.48;15.77;;;;;;;;;;5056372;28;20035;-49
2021/11/20 01:58:39;;;;;;;42.97;23.23;;;;;;;;;;5056402;28;20071;-49
2021/11/20 02:01:08;;;;;;;30.95;17.05;;;;;;;;;;5056350;28;20055;-49
2021/11/20 02:03:59;;;;;;;27.02;14.95;;;;;;;;;;5056821;28;20150;-50
2021/11/20 02:06:33;;;;;;;26.55;15.38;;;;;;;;;;5055120;28;20511;-50
2021/11/20 02:09:05;;;;;;;30.17;16.30;;;;;;;;;;5056306;28;20021;-49
2021/11/20 02:11:38;;;;;;;;;;;;;;;;;;5056522;28;20385;-50
2021/11/20 02:14:05;;;;;;;26.90;14.57;;;;;;;;;;5056023;28;19911;-49
2021/11/20 02:16:50;;;;;;;35.50;20.23;;;;;;;;;;5056000;28;20025;-49
2021/11/20 02:19:19;;;;;;;31.90;17.90;;;;;;;;;;5055952;28;20033;-49
2021/11/20 02:21:53;;;;;;;31.67;16.65;;;;;;;;;;5056178;28;20496;-49
2021/11/20 02:24:19;;;;;;;21.83;13.18;;;;;;;;;;5055869;28;20060;-49
2021/11/20 02:26:45;;;;;;;38.20;20.08;;;;;;;;;;5055807;28;20036;-49
2021/11/20 02:29:12;;;;;;;22.80;13.05;;;;;;;;;;5055826;28;20017;-49
2021/11/20 02:31:40;;;;;;;28.17;16.17;;;;;;;;;;5055800;28;20021;-49
2021/11/20 02:34:09;;;;;;;23.08;13.38;;;;;;;;;;5056168;28;20036;-49
2021/11/20 02:36:36;;;;;;;21.67;13.27;;;;;;;;;;5055930;28;20071;-49
2021/11/20 02:39:07;;;;;;;23.83;13.35;;;;;;;;;;5055748;28;20017;-49
2021/11/20 02:41:34;;;;;;;21.77;13.75;;;;;;;;;;5055599;28;20027;-49
2021/11/20 02:44:02;;;;;;;21.42;12.98;;;;;;;;;;5055458;28;20025;-50
2021/11/20 02:46:30;;;;;;;22.73;14.32;;;;;;;;;;5055375;28;20491;-49
2021/11/20 02:48:57;;;;;;;24.63;15.02;;;;;;;;;;5055722;28;20024;-49
2021/11/20 02:51:27;;;;;;;21.13;12.73;;;;;;;;;;5055306;28;20120;-49
2021/11/20 02:53:59;;;;;;;19.50;11.30;;;;;;;;;;5055326;28;20017;-49
2021/11/20 02:56:28;;;;;;;23.05;14.18;;;;;;;;;;5054242;28;20032;-49
2021/11/20 02:58:58;;;;;;;24.65;13.77;;;;;;;;;;5055282;28;20215;-49
2021/11/20 03:01:26;;;;;;;28.23;15.30;;;;;;;;;;5055316;28;20021;-50
2021/11/20 03:03:52;;;;;;;25.52;15.10;;;;;;;;;;5055221;28;20051;-49
2021/11/20 03:06:21;;;;;;;25.55;15.30;;;;;;;;;;5055603;28;20025;-49
2021/11/20 03:08:48;;;;;;;23.70;15.02;;;;;;;;;;5055115;28;20476;-49
2021/11/20 03:11:14;;;;;;;22.55;12.65;;;;;;;;;;5054982;28;20029;-50
2021/11/20 03:13:42;;;;;;;20.08;12.18;;;;;;;;;;5055119;28;20049;-49
2021/11/20 03:16:08;;;;;;;22.05;11.55;;;;;;;;;;5055162;28;20060;-49
2021/11/20 03:18:34;;;;;;;23.13;13.93;;;;;;;;;;5055060;28;20014;-49
2021/11/20 03:21:00;;;;;;;24.52;14.30;;;;;;;;;;5055022;28;20033;-49
2021/11/20 03:23:45;;;;;;;19.02;11.60;;;;;;;;;;5054918;28;20028;-49
2021/11/20 03:26:12;;;;;;;20.98;12.88;;;;;;;;;;5054688;28;20047;-50
2021/11/20 03:28:38;;;;;;;18.90;10.73;;;;;;;;;;5054684;28;20032;-49
2021/11/20 03:31:07;;;;;;;19.17;11.90;;;;;;;;;;5054711;28;20048;-49
2021/11/20 03:33:34;;;;;;;20.10;12.07;;;;;;;;;;5053640;28;20029;-49
2021/11/20 03:36:01;;;;;;;18.52;11.00;;;;;;;;;;5054608;28;20431;-49
2021/11/20 03:38:27;;;;;;;16.73;11.25;;;;;;;;;;5054521;28;20544;-49
2021/11/20 03:40:53;;;;;;;19.00;11.60;;;;;;;;;;5054521;28;20029;-49
2021/11/20 03:43:19;;;;;;;20.73;11.85;;;;;;;;;;5054497;28;20032;-49
2021/11/20 03:45:48;;;;;;;20.52;13.35;;;;;;;;;;5054476;28;20037;-49
2021/11/20 03:48:14;;;;;;;22.50;11.93;;;;;;;;;;5054400;28;20556;-50
2021/11/20 03:50:41;;;;;;;28.50;16.77;;;;;;;;;;5054351;28;20079;-49
2021/11/20 03:53:09;;;;;;;16.90;10.75;;;;;;;;;;5054160;28;20165;-49
2021/11/20 03:55:37;;;;;;;20.83;12.55;;;;;;;;;;5054214;28;20029;-49
2021/11/20 03:58:06;;;;;;;23.70;13.10;;;;;;;;;;5054360;28;20492;-49
2021/11/20 04:00:36;;;;;;;17.05;10.90;;;;;;;;;;5054329;28;20036;-49
2021/11/20 04:03:03;;;;;;;24.15;13.25;;;;;;;;;;5053071;28;20086;-49
2021/11/20 04:05:32;;;;;;;25.05;13.95;;;;;;;;;;5054120;28;20033;-50
2021/11/20 04:07:58;;;;;;;20.38;12.73;;;;;;;;;;5053828;28;20104;-49
2021/11/20 04:10:24;;;;;;;19.10;12.02;;;;;;;;;;5054081;28;20029;-50
2021/11/20 04:12:51;;;;;;;21.25;12.35;;;;;;;;;;5054002;28;20048;-49
2021/11/20 04:15:19;;;;;;;17.73;10.65;;;;;;;;;;5053975;28;20021;-50
2021/11/20 04:17:45;;;;;;;19.05;11.45;;;;;;;;;;5053856;28;20033;-49
2021/11/20 04:20:14;;;;;;;19.30;12.02;;;;;;;;;;5053652;28;20082;-50
2021/11/20 04:22:42;;;;;;;17.08;11.15;;;;;;;;;;5054147;28;20094;-50
2021/11/20 04:25:10;;;;;;;18.23;11.25;;;;;;;;;;5053697;28;20037;-51
2021/11/20 04:27:36;;;;;;;17.48;11.50;;;;;;;;;;5053835;28;20029;-50
2021/11/20 04:30:03;;;;;;;17.17;11.10;;;;;;;;;;5053753;28;20380;-50
2021/11/20 04:32:29;;;;;;;20.58;11.85;;;;;;;;;;5053553;28;20465;-50
2021/11/20 04:34:55;;;;;;;22.25;13.40;;;;;;;;;;5053401;28;20035;-50
2021/11/20 04:37:26;;;;;;;27.92;15.68;;;;;;;;;;5053583;28;20045;-50
2021/11/20 04:39:52;;;;;;;30.02;16.92;;;;;;;;;;5053556;28;20035;-49
2021/11/20 04:42:19;;;;;;;25.98;14.80;;;;;;;;;;5053286;28;20487;-49
2021/11/20 04:44:45;;;;;;;22.52;13.35;;;;;;;;;;5053267;28;20116;-50
2021/11/20 04:47:11;;;;;;;26.88;14.00;;;;;;;;;;5053392;28;20135;-49
2021/11/20 04:49:38;;;;;;;22.23;12.60;;;;;;;;;;5053062;28;20029;-49
2021/11/20 04:52:04;;;;;;;21.20;11.77;;;;;;;;;;5053096;28;20051;-50
2021/11/20 04:54:31;;;;;;;19.55;12.07;;;;;;;;;;5053480;28;20033;-50
2021/11/20 04:56:57;;;;;;;21.42;12.40;;;;;;;;;;5053175;28;20025;-49
2021/11/20 04:59:24;;;;;;;17.20;11.35;;;;;;;;;;5053335;28;20511;-49
2021/11/20 05:01:53;;;;;;;20.65;13.77;;;;;;;;;;5053217;28;20025;-49
2021/11/20 05:04:19;;;;;;;20.23;12.02;;;;;;;;;;5052937;28;20031;-49
2021/11/20 05:06:45;;;;;;;17.30;11.60;;;;;;;;;;5052883;28;20040;-49
2021/11/20 05:09:11;;;;;;;16.92;10.98;;;;;;;;;;5053293;28;20032;-49
2021/11/20 05:11:37;;;;;;;17.63;10.45;;;;;;;;;;5053318;28;20384;-49
2021/11/20 05:14:04;;;;;;;19.05;11.52;;;;;;;;;;5053045;28;20380;-49
2021/11/20 05:16:30;;;;;;;18.23;10.93;;;;;;;;;;5053077;28;20056;-49
2021/11/20 05:18:56;;;;;;;18.95;11.45;;;;;;;;;;5052445;28;20078;-49
2021/11/20 05:21:24;;;;;;;17.38;11.73;;;;;;;;;;5051658;28;20377;-49
2021/11/20 05:23:51;;;;;;;21.67;13.48;;;;;;;;;;5053071;28;20041;-49
2021/11/20 05:26:18;;;;;;;20.10;13.07;;;;;;;;;;5052877;28;20033;-49
2021/11/20 05:28:50;;;;;;;19.17;11.80;;;;;;;;;;5052874;28;20099;-50
2021/11/20 05:31:17;;;;;;;21.33;12.18;;;;;;;;;;5052982;28;20056;-50
2021/11/20 05:33:45;;;;;;;24.30;12.30;;;;;;;;;;5052923;28;20025;-49
2021/11/20 05:36:13;;;;;;;18.90;11.32;;;;;;;;;;5052732;28;20108;-50
2021/11/20 05:38:39;;;;;;;19.25;11.82;;;;;;;;;;5052921;28;20025;-50
2021/11/20 05:41:06;;;;;;;20.27;11.70;;;;;;;;;;5052769;28;20102;-50
2021/11/20 05:43:32;;;;;;;20.67;11.70;;;;;;;;;;5052654;28;20029;-50
2021/11/20 05:46:00;;;;;;;18.80;11.60;;;;;;;;;;5052772;28;20044;-50
2021/11/20 05:48:26;;;;;;;18.27;12.15;;;;;;;;;;5053255;28;20017;-49
2021/11/20 05:50:53;;;;;;;18.35;11.50;;;;;;;;;;5051404;28;20040;-49
2021/11/20 05:53:21;;;;;;;21.52;11.32;;;;;;;;;;5052658;28;20032;-50
2021/11/20 05:55:49;;;;;;;22.08;12.88;;;;;;;;;;5052413;28;20044;-50
2021/11/20 05:58:18;;;;;;;26.10;13.05;;;;;;;;;;5052697;28;20100;-49
2021/11/20 06:00:46;;;;;;;25.35;13.00;;;;;;;;;;5052532;28;20394;-49
2021/11/20 06:03:12;;;;;;;19.45;13.00;;;;;;;;;;5052563;28;20017;-49
2021/11/20 06:05:40;;;;;;;21.25;12.80;;;;;;;;;;5052573;28;20037;-49
2021/11/20 06:08:07;;;;;;;21.33;12.95;;;;;;;;;;5052523;28;20083;-49
2021/11/20 06:10:33;;;;;;;20.08;12.60;;;;;;;;;;5052533;28;20091;-49
2021/11/20 06:13:00;;;;;;;24.45;13.35;;;;;;;;;;5052365;28;20044;-49
2021/11/20 06:15:29;;;;;;;20.77;13.55;;;;;;;;;;5052954;28;20021;-49
2021/11/20 06:17:55;;;;;;;23.92;14.32;;;;;;;;;;5052398;28;20114;-49
2021/11/20 06:20:21;;;;;;;28.73;17.17;;;;;;;;;;5052409;28;20033;-49
2021/11/20 06:22:50;;;;;;;33.80;18.60;;;;;;;;;;5052426;28;20473;-49
2021/11/20 06:25:16;;;;;;;28.13;17.08;;;;;;;;;;5052330;28;20029;-50
2021/11/20 06:27:43;;;;;;;26.52;15.60;;;;;;;;;;5052310;28;20071;-50
2021/11/20 06:30:11;;;;;;;22.85;14.15;;;;;;;;;;5052417;28;20017;-50
2021/11/20 06:32:38;;;;;;;23.73;14.00;;;;;;;;;;5055415;28;20477;-50
2021/11/20 06:35:06;;;;;;;23.60;14.38;;;;;;;;;;5055719;28;20477;-50
2021/11/20 06:37:33;;;;;;;23.67;14.73;;;;;;;;;;5055748;28;20527;-50
2021/11/20 06:39:59;;;;;;;21.65;13.60;;;;;;;;;;5056071;28;20107;-50
2021/11/20 06:42:25;;;;;;;23.77;15.18;;;;;;;;;;5055606;28;20021;-50
2021/11/20 06:44:54;;;;;;;22.67;14.43;;;;;;;;;;5055722;28;20064;-50
2021/11/20 06:47:20;;;;;;;21.35;14.20;;;;;;;;;;5055765;28;20516;-50
2021/11/20 06:49:46;;;;;;;21.67;14.27;;;;;;;;;;5055426;28;20029;-50
2021/11/20 06:52:12;;;;;;;23.83;14.60;;;;;;;;;;5055469;28;20041;-50
2021/11/20 06:54:44;;;;;;;24.55;15.50;;;;;;;;;;5054429;28;20158;-50
2021/11/20 06:57:13;;;;;;;25.15;15.50;;;;;;;;;;5055537;28;20017;-50
2021/11/20 07:02:17;;;;;;;25.77;16.73;;;;;;;;;;5055431;28;20025;-50
2021/11/20 07:04:43;;;;;;;29.92;20.25;;;;;;;;;;5055379;28;20338;-50
2021/11/20 07:07:13;;;;;;;34.75;20.15;;;;;;;;;;5055182;28;20027;-50
2021/11/20 07:09:42;;;;;;;31.25;18.85;;;;;;;;;;5055274;28;20029;-50
2021/11/20 07:12:10;;;;;;;31.35;17.98;;;;;;;;;;5055021;28;20021;-50
2021/11/20 07:14:37;;;;;;;31.13;20.08;;;;;;;;;;5055037;28;20060;-50
2021/11/20 07:17:03;;;;;;;33.88;21.95;;;;;;;;;;5054962;28;20027;-51
2021/11/20 07:19:30;;;;;;;29.77;19.67;;;;;;;;;;5054902;28;20040;-53
2021/11/20 07:21:56;;;;;;;36.35;20.17;;;;;;;;;;5055003;28;20032;-50
2021/11/20 07:24:30;;;;;;;28.85;17.08;;;;;;;;;;5054978;28;20111;-51
2021/11/20 07:26:56;;;;;;;21.90;15.85;;;;;;;;;;5054665;28;20044;-50
2021/11/20 07:29:22;;;;;;;25.65;15.75;;;;;;;;;;5054740;28;20047;-51
2021/11/20 07:31:48;;;;;;;26.88;14.93;;;;;;;;;;5054628;28;20079;-50
2021/11/20 07:34:15;;;;;;;23.33;15.82;;;;;;;;;;5054184;28;20032;-50
2021/11/20 07:36:44;;;;;;;22.58;15.57;;;;;;;;;;5054064;28;20024;-50
2021/11/20 07:39:12;;;;;;;20.20;13.35;;;;;;;;;;5054139;28;20366;-51
2021/11/20 07:41:38;;;;;;;19.00;13.60;;;;;;;;;;5053426;28;20466;-50
2021/11/20 07:44:04;;;;;;;22.63;13.88;;;;;;;;;;5051313;28;20094;-51
2021/11/20 07:46:30;;;;;;;22.80;13.95;;;;;;;;;;5053814;28;20032;-51
2021/11/20 07:48:57;;;;;;;26.17;15.15;;;;;;;;;;5054015;28;20021;-50
2021/11/20 07:51:23;;;;;;;20.48;14.30;;;;;;;;;;5053815;28;20087;-51
2021/11/20 07:53:49;;;;;;;19.08;12.80;;;;;;;;;;5053789;28;20551;-51
2021/11/20 07:56:19;;;;;;;16.90;11.95;;;;;;;;;;5053845;28;20032;-51
2021/11/20 07:58:45;;;;;;;17.63;12.35;;;;;;;;;;5051461;28;20024;-51
2021/11/20 08:01:13;;;;;;;14.68;11.00;;;;;;;;;;5053582;28;20465;-51
2021/11/20 08:03:39;;;;;;;21.17;13.38;;;;;;;;;;5053597;28;20075;-51
2021/11/20 08:06:15;;;;;;;20.08;11.45;;;;;;;;;;5050947;28;20033;-51
2021/11/20 08:08:41;;;;;;;18.02;11.52;;;;;;;;;;5053483;28;20017;-51
2021/11/20 08:11:07;;;;;;;17.70;11.30;;;;;;;;;;5053429;28;20078;-51
2021/11/20 08:13:35;;;;;;;19.45;12.00;;;;;;;;;;5053510;28;20017;-51
2021/11/20 08:16:02;;;;;;;15.48;10.63;;;;;;;;;;5053680;28;20519;-51
2021/11/20 08:18:28;;;;;;;15.18;10.18;;;;;;;;;;5053581;28;20079;-51
2021/11/20 08:20:54;;;;;;;24.77;14.70;;;;;;;;;;5053491;28;20090;-51
2021/11/20 08:23:20;;;;;;;16.65;10.07;;;;;;;;;;5053077;28;20033;-51
2021/11/20 08:25:47;;;;;;;15.38;9.82;;;;;;;;;;5053196;28;20039;-51
2021/11/20 08:28:16;;;;;;;20.33;12.38;;;;;;;;;;5053398;28;20020;-51
2021/11/20 08:30:42;;;;;;;15.98;10.10;;;;;;;;;;5051074;28;20029;-51
2021/11/20 08:33:09;;;;;;;18.98;12.32;;;;;;;;;;5053304;28;20075;-51
2021/11/20 08:35:37;;;;;;;14.00;9.07;;;;;;;;;;5053793;28;20025;-51
2021/11/20 08:38:04;;;;;;;23.27;12.57;;;;;;;;;;5053052;28;20027;-51
2021/11/20 08:40:31;;;;;;;14.70;9.45;;;;;;;;;;5052982;28;20025;-54
2021/11/20 08:42:59;;;;;;;15.52;10.38;;;;;;;;;;5050807;28;20040;-57
2021/11/20 08:45:26;;;;;;;13.95;9.32;;;;;;;;;;5052681;28;20376;-54
2021/11/20 08:47:53;;;;;;;13.93;8.82;;;;;;;;;;5052790;28;20023;-53
2021/11/20 08:50:22;;;;;;;13.43;9.75;;;;;;;;;;5052865;28;20488;-54
2021/11/20 08:52:50;;;;;;;14.80;9.45;;;;;;;;;;5052538;28;20060;-56
2021/11/20 08:55:16;;;;;;;20.92;13.48;;;;;;;;;;5049317;28;20044;-53
2021/11/20 08:57:43;;;;;;;41.22;23.35;;;;;;;;;;5052637;28;20079;-55
2021/11/20 09:00:16;;;;;;;22.92;11.55;;;;;;;;;;5052672;28;20500;-55
2021/11/20 09:02:45;;;;;;;12.93;9.00;;;;;;;;;;5050632;28;20031;-56
2021/11/20 09:05:15;;;;;;;16.42;9.82;;;;;;;;;;5052554;28;21419;-55
2021/11/20 09:07:44;;;;;;;19.33;10.98;;;;;;;;;;5050649;28;20150;-55
2021/11/20 09:10:13;;;;;;;14.15;9.07;;;;;;;;;;5052567;28;20100;-56
2021/11/20 09:12:43;;;;;;;21.50;10.13;;;;;;;;;;5050010;28;20013;-55
2021/11/20 09:15:09;;;;;;;18.23;10.70;;;;;;;;;;5052547;28;20032;-56
2021/11/20 09:17:35;;;;;;;21.02;13.40;;;;;;;;;;5052168;28;20044;-56
2021/11/20 09:20:01;;;;;;;14.50;9.82;;;;;;;;;;5052330;28;20028;-53
2021/11/20 09:22:30;;;;;;;12.75;8.05;;;;;;;;;;5052429;28;20032;-51
2021/11/20 09:24:56;;;;;;;18.30;12.00;;;;;;;;;;5052275;28;20025;-52
2021/11/20 09:27:23;;;;;;;14.82;7.70;;;;;;;;;;5051937;28;20029;-52
2021/11/20 09:29:49;;;;;;;12.57;8.07;;;;;;;;;;5052450;28;20017;-55
2021/11/20 09:32:15;;;;;;;14.90;9.23;;;;;;;;;;5052336;28;20021;-54
2021/11/20 09:34:44;;;;;;;11.40;7.50;;;;;;;;;;5026624;28;20048;-54
2021/11/20 09:37:10;;;;;;;17.27;10.35;;;;;;;;;;5025600;28;20029;-52
2021/11/20 09:39:42;;;;;;;25.50;16.45;;;;;;;;;;5025426;28;20029;-51
2021/11/20 09:42:09;;;;;;;14.27;10.73;;;;;;;;;;5025658;28;20017;-51
2021/11/20 09:44:38;;;;;;;21.13;10.10;;;;;;;;;;5025500;28;20920;-55
2021/11/20 09:47:13;;;;;;;39.38;19.58;;;;;;;;;;5025946;28;20044;-65
2021/11/20 09:49:44;;;;;;;17.67;9.13;;;;;;;;;;5025777;28;20420;-54
2021/11/20 09:52:10;;;;;;;21.80;13.10;;;;;;;;;;5025589;28;20057;-53
2021/11/20 09:54:41;;;;;;;21.38;13.88;;;;;;;;;;5025025;28;20938;-53
2021/11/20 09:57:11;;;;;;;14.48;9.25;;;;;;;;;;5025537;28;20642;-53
2021/11/20 09:59:45;;;;;;;15.32;10.45;;;;;;;;;;5025640;28;20029;-51
2021/11/20 10:02:18;;;;;;;15.05;9.25;;;;;;;;;;5025358;28;20021;-52
2021/11/20 10:05:00;;;;;;;21.75;12.65;;;;;;;;;;5025279;28;20035;-53
2021/11/20 10:07:26;;;;;;;29.15;15.68;;;;;;;;;;5028947;28;20048;-52
2021/11/20 10:09:59;;;;;;;36.08;22.30;;;;;;;;;;5028938;28;20025;-53
2021/11/20 10:12:34;;;;;;;20.25;11.98;;;;;;;;;;5051729;28;20028;-52
2021/11/20 10:15:12;;;;;;;46.75;26.70;;;;;;;;;;5056111;28;20074;-53
2021/11/20 10:17:40;;;;;;;26.35;15.32;;;;;;;;;;5056177;28;20072;-50
2021/11/20 10:20:22;;;;;;;35.13;21.73;;;;;;;;;;5055806;28;20053;-50
2021/11/20 10:22:55;;;;;;;63.80;34.75;;;;;;;;;;5056173;28;20044;-51
2021/11/20 10:25:32;;;;;;;41.15;25.45;;;;;;;;;;5055653;28;20118;-50
2021/11/20 10:28:10;;;;;;;69.63;38.00;;;;;;;;;;5056086;28;20021;-49
2021/11/20 10:31:04;;;;;;;48.67;28.95;;;;;;;;;;5055931;28;20025;-49
2021/11/20 10:33:36;;;;;;;39.55;24.17;;;;;;;;;;5054233;28;20033;-52
2021/11/20 10:36:05;;;;;;;54.30;30.45;;;;;;;;;;5055917;28;20465;-51
2021/11/20 10:38:35;;;;;;;42.05;23.80;;;;;;;;;;5055635;28;20036;-51
2021/11/20 10:41:11;;;;;;;53.90;28.27;;;;;;;;;;5055640;28;20036;-53
2021/11/20 10:43:42;;;;;;;53.08;30.58;;;;;;;;;;5055555;28;20021;-53
2021/11/20 10:46:14;;;;;;;34.65;21.48;;;;;;;;;;5055520;28;20029;-54
2021/11/20 10:48:42;;;;;;;40.47;21.13;;;;;;;;;;5055523;28;20112;-52
2021/11/20 10:51:15;;;;;;;58.58;34.13;;;;;;;;;;5055118;28;20740;-51
2021/11/20 10:53:53;;;;;;;46.50;26.20;;;;;;;;;;5055427;28;20115;-49
2021/11/20 10:56:31;;;;;;;60.30;28.70;;;;;;;;;;5055190;28;20067;-52
2021/11/20 10:59:12;;;;;;;183.85;89.95;;;;;;;;;;5055510;28;20380;-50
2021/11/20 11:01:38;;;;;;;;;;;;;;;;;;5055751;28;20605;-52
2021/11/20 11:04:18;;;;;;;39.25;21.52;;;;;;;;;;5055250;28;19999;-51
2021/11/20 11:06:47;;;;;;;44.03;23.52;;;;;;;;;;5055387;28;20072;-53
2021/11/20 11:09:32;;;;;;;30.52;18.52;;;;;;;;;;5055157;28;20461;-51
2021/11/20 11:12:02;;;;;;;20.95;12.60;;;;;;;;;;5055047;28;20070;-51
2021/11/20 11:14:28;;;;;;;45.13;25.60;;;;;;;;;;5055032;28;20056;-51
2021/11/20 11:16:59;;;;;;;40.78;21.95;;;;;;;;;;5054215;28;20029;-51
2021/11/20 11:19:37;;;;;;;26.58;14.65;;;;;;;;;;5054950;28;20017;-53
2021/11/20 11:22:16;;;;;;;80.80;39.90;;;;;;;;;;5054971;28;20033;-51
2021/11/20 11:24:42;;;;;;;40.78;23.77;;;;;;;;;;5055013;28;20029;-52
2021/11/20 11:27:12;;;;;;;15.65;10.85;;;;;;;;;;5053958;28;20033;-51
2021/11/20 11:29:58;;;;;;;16.27;8.40;;;;;;;;;;5055064;28;20017;-51
2021/11/20 11:32:25;;;;;;;27.45;12.13;;;;;;;;;;5054794;28;20025;-52
2021/11/20 11:34:54;;;;;;;54.65;33.25;;;;;;;;;;5054623;28;20120;-52
2021/11/20 11:37:20;;;;;;;59.10;33.25;;;;;;;;;;5054740;28;20017;-55
2021/11/20 11:39:53;;;;;;;75.05;45.67;;;;;;;;;;5054442;28;20025;-52
2021/11/20 11:42:32;;;;;;;50.33;29.92;;;;;;;;;;5054678;28;20025;-56
2021/11/20 11:45:07;;;;;;;40.90;24.67;;;;;;;;;;5054531;28;20060;-51
2021/11/20 11:47:52;;;;;;;49.63;28.15;;;;;;;;;;5054494;28;20033;-51
2021/11/20 11:50:35;;;;;;;39.58;23.63;;;;;;;;;;5054206;28;20033;-53
2021/11/20 11:53:19;;;;;;;50.45;25.13;;;;;;;;;;5054243;28;20061;-54
2021/11/20 11:55:50;;;;;;;63.22;35.85;;;;;;;;;;5054407;28;20024;-54
2021/11/20 11:58:19;;;;;;;41.90;23.85;;;;;;;;;;5054354;28;20155;-52
2021/11/20 12:00:45;;;;;;;64.65;31.20;;;;;;;;;;5054131;28;20388;-53
2021/11/20 12:03:27;;;;;;;88.10;38.75;;;;;;;;;;5053564;28;20029;-54
2021/11/20 12:06:11;;;;;;;72.95;35.22;;;;;;;;;;5051532;28;20029;-54
2021/11/20 12:08:38;;;;;;;40.90;20.55;;;;;;;;;;5051876;28;20029;-54
2021/11/20 12:11:27;;;;;;;26.88;12.32;;;;;;;;;;5052500;28;20035;-54
2021/11/20 12:13:54;;;;;;;26.65;15.95;;;;;;;;;;5048539;28;20049;-56
2021/11/20 12:16:30;;;;;;;34.63;18.65;;;;;;;;;;5054011;28;20477;-53
2021/11/20 12:19:02;;;;;;;30.58;16.33;;;;;;;;;;5053941;28;20033;-54
2021/11/20 12:21:38;;;;;;;38.00;21.15;;;;;;;;;;5053610;28;20033;-52
2021/11/20 12:24:32;;;;;;;25.98;14.82;;;;;;;;;;5053924;28;20021;-52
2021/11/20 12:27:00;;;;;;;38.80;17.77;;;;;;;;;;5053574;28;20487;-52
2021/11/20 12:29:50;;;;;;;43.55;21.52;;;;;;;;;;5053589;28;20051;-51
2021/11/20 12:32:29;;;;;;;85.80;30.90;;;;;;;;;;5053633;28;20116;-53
2021/11/20 12:35:06;;;;;;;98.90;36.50;;;;;;;;;;5053825;28;20429;-53
2021/11/20 12:37:50;;;;;;;95.50;36.17;;;;;;;;;;5053611;28;20017;-53
2021/11/20 12:40:22;;;;;;;73.63;27.00;;;;;;;;;;5053670;28;20035;-53
2021/11/20 12:43:04;;;;;;;31.80;14.25;;;;;;;;;;5053371;28;20108;-55
2021/11/20 12:45:33;;;;;;;44.95;18.52;;;;;;;;;;5053529;28;20072;-54
2021/11/20 12:48:11;;;;;;;42.60;18.90;;;;;;;;;;5053307;28;20033;-54
2021/11/20 12:50:53;;;;;;;35.78;17.50;;;;;;;;;;5053519;28;20029;-55
2021/11/20 12:53:28;;;;;;;41.80;19.10;;;;;;;;;;5053218;28;20485;-54
2021/11/20 12:56:11;;;;;;;49.35;21.25;;;;;;;;;;5053254;28;20029;-54
2021/11/20 12:58:42;;;;;;;34.05;16.85;;;;;;;;;;5053297;28;20468;-54
2021/11/20 13:01:10;;;;;;;14.57;9.60;;;;;;;;;;5053298;28;20025;-54
2021/11/20 13:03:38;;;;;;;30.33;11.52;;;;;;;;;;5053252;28;20037;-54
2021/11/20 13:06:25;;;;;;;28.10;11.85;;;;;;;;;;5053121;28;20021;-55
2021/11/20 13:08:58;;;;;;;24.25;11.15;;;;;;;;;;5053229;28;20568;-54
2021/11/20 13:11:27;;;;;;;23.85;10.82;;;;;;;;;;5051963;28;20032;-54
2021/11/20 13:14:11;;;;;;;32.53;13.23;;;;;;;;;;5053000;28;20481;-54
2021/11/20 13:16:56;;;;;;;29.95;11.70;;;;;;;;;;5053025;28;20021;-54
2021/11/20 13:19:24;;;;;;;25.75;11.35;;;;;;;;;;5050284;28;20029;-54
2021/11/20 13:21:53;;;;;;;17.10;10.05;;;;;;;;;;5052434;28;20028;-54
2021/11/20 13:24:26;;;;;;;16.70;9.55;;;;;;;;;;5049955;28;20388;-53
2021/11/20 13:27:08;;;;;;;27.27;14.27;;;;;;;;;;5052217;28;20048;-53
2021/11/20 13:29:43;;;;;;;16.73;9.35;;;;;;;;;;5052496;28;20377;-53
2021/11/20 13:32:18;;;;;;;23.23;11.95;;;;;;;;;;5052438;28;20492;-53
2021/11/20 13:34:57;;;;;;;20.30;12.05;;;;;;;;;;5051156;28;20021;-53
2021/11/20 13:37:23;;;;;;;15.05;9.10;;;;;;;;;;5050385;28;20043;-53
2021/11/20 13:39:52;;;;;;;25.02;12.73;;;;;;;;;;5052552;28;20017;-53
2021/11/20 13:42:18;;;;;;;15.48;10.27;;;;;;;;;;5055532;28;20021;-53
2021/11/20 13:44:48;;;;;;;15.93;8.60;;;;;;;;;;5054438;28;20033;-53
2021/11/20 13:47:14;;;;;;;16.45;10.07;;;;;;;;;;5055906;28;20044;-53
2021/11/20 13:49:40;;;;;;;17.30;9.82;;;;;;;;;;5056129;28;20020;-53
2021/11/20 13:52:07;;;;;;;19.13;10.98;;;;;;;;;;5055766;28;20061;-53
2021/11/20 13:54:33;;;;;;;17.45;10.35;;;;;;;;;;5056232;28;20016;-53
2021/11/20 13:56:59;;;;;;;15.20;9.50;;;;;;;;;;5056032;28;20542;-53
2021/11/20 13:59:26;;;;;;;24.08;12.10;;;;;;;;;;5055945;28;20029;-53
2021/11/20 14:01:53;;;;;;;31.05;11.13;;;;;;;;;;5053305;28;20142;-53
2021/11/20 14:04:22;;;;;;;19.70;9.35;;;;;;;;;;5056111;28;20017;-53
2021/11/20 14:07:01;;;;;;;18.65;9.77;;;;;;;;;;5055714;28;20078;-53
2021/11/20 14:09:29;;;;;;;18.65;10.00;;;;;;;;;;5055916;28;20021;-53
2021/11/20 14:12:05;;;;;;;15.25;9.43;;;;;;;;;;5055871;28;20049;-53
2021/11/20 14:14:32;;;;;;;13.63;8.98;;;;;;;;;;5055727;28;20109;-53
2021/11/20 14:17:06;;;;;;;12.50;8.10;;;;;;;;;;5055754;28;20021;-53
2021/11/20 14:19:33;;;;;;;15.43;8.27;;;;;;;;;;5052921;28;20028;-53
2021/11/20 14:22:00;;;;;;;20.08;9.40;;;;;;;;;;5055731;28;20476;-54
2021/11/20 14:24:29;;;;;;;19.83;10.63;;;;;;;;;;5055555;28;20555;-53
2021/11/20 14:27:00;;;;;;;16.70;9.80;;;;;;;;;;5053328;28;20033;-54
2021/11/20 14:29:28;;;;;;;23.45;11.45;;;;;;;;;;5055406;28;20095;-53
2021/11/20 14:31:54;;;;;;;18.67;11.40;;;;;;;;;;5052971;28;20063;-54
2021/11/20 14:34:28;;;;;;;25.17;10.30;;;;;;;;;;5055488;28;20017;-53
2021/11/20 14:36:57;;;;;;;22.83;11.30;;;;;;;;;;5053087;28;20017;-53